Auckland International Airport
NZAA : now visible

Airfield :











YOU CAN JOIN US ON...

 
LOGIN :

Register | Disclaimer

   EN    FR    IT 

 









Legend :    VFR   Marginal VFR   IFR   Intensive IFR   Very Intensive IFR
Visi :
Ceiling :
>= 8 km
>= 3000ft
5 to 8 km
1000 to 3000 ft
1500m to 5 km
500 to 1000 ft
800 to 1500m
200 to 500 ft
< 800m
< 200 ft
Symbols :   Thunderstorms  Fog  Heavy snow  Heavy precipitations  Wind > 20 kt






- Airport Elevation : 23 ft
- IATA code : AKL


NZAA - Auckland International

CURRENT METAR :
  • 301030Z AUTO 23002KT 9999 NCD 16/14 Q1019 NOSIG

EXPIRED METARs :
  • 301000Z AUTO 23003KT 9999 NCD 16/15 Q1019 NOSIG
  • 300930Z AUTO 18004KT 9999 NCD 16/15 Q1019 TEMPO TL1000 6000 SHRA FEW020TCU
  • 300900Z AUTO 20006KT 9999 FEW060/// 17/15 Q1019 TEMPO 6000 SHRA FEW020TCU
  • 300830Z AUTO 22007KT 9999 -RA SCT041/// BKN060/// OVC100/// 17/15 Q1019 RERA TEMPO 6000 SHRA FEW020TCU
  • 300800Z AUTO 21008KT 9999 BKN038/// BKN047/// BKN060/// 18/15 Q1018 TEMPO 6000 SHRA FEW020TCU

TAF TAF NZAA
Valid from the 30 at 06:00 until the 31 at 06:00 UTC


300509Z 3006/3106 26010KT 9999 FEW050
TEMPO 3006/3010 6000 SHRA FEW020TCU
PROB40
TEMPO 3006/3008 2500 TSRAGS FEW020CB
BECMG 3008/3010 16005KT
BECMG 3101/3103 24010KT



MET'MAP, your aeronautical weather chart ! - Copyright ORBIFLY December 2007 - Disclaimer

ORBIFLY MET'MAP TEAM :

Programming & Development : Alexandra Zaïnal
Concept & original design : Baudouin d'Aumeries
Assistance for programming : Marc-Olivier Méhu
Technical & hardware support : Manuel Goepfert

Contact : metmap@orbifly.com




SOURCES & CREDITS :

   NOAA       Earth
Advisory